CDT,Max TemperatureF,Mean TemperatureF,Min TemperatureF,Max Dew PointF,MeanDew PointF,Min DewpointF,Max Humidity, Mean Humidity, Min Humidity, Max Sea Level PressureIn, Mean Sea Level PressureIn, Min Sea Level PressureIn, Max VisibilityMiles, Mean VisibilityMiles, Min VisibilityMiles, Max Wind SpeedMPH, Mean Wind SpeedMPH, Max Gust SpeedMPH,PrecipitationIn, CloudCover, Events, WindDirDegrees
2013-8-1,87,76,64,68,65,63,100,73,45,30.09,30.03,29.95,10,10,6,12,4,15,0.00,1,,181
2013-8-2,87,77,67,73,69,64,93,77,61,29.99,29.90,29.83,10,8,2,15,7,21,0.42,6,Rain-Thunderstorm,99
2013-8-3,84,78,72,72,70,68,93,79,65,30.11,30.01,29.90,10,10,4,14,7,17,0.09,7,Rain-Thunderstorm,69
2013-8-4,75,71,66,70,67,61,100,84,68,30.16,30.08,30.01,10,7,1,12,6,17,0.49,8,Rain,112
2013-8-5,85,77,69,73,70,68,100,85,69,30.06,29.93,29.82,9,8,6,13,5,15,0.00,7,,131
2013-8-6,86,78,70,75,72,69,100,83,65,29.88,29.83,29.78,10,9,2,15,6,18,0.31,3,Rain-Thunderstorm,178
2013-8-7,85,78,71,74,70,64,94,80,65,29.95,29.88,29.78,10,9,2,24,6,36,0.67,4,Rain-Thunderstorm,265
2013-8-8,74,71,68,67,64,62,87,80,73,29.99,29.94,29.90,10,10,10,21,6,28,0.01,5,Rain,56
2013-8-9,73,70,66,68,64,62,87,78,68,30.11,30.03,29.97,10,10,7,8,4,12,0.03,5,Rain,37
2013-8-10,83,74,64,64,62,59,100,76,51,30.17,30.13,30.08,10,10,6,13,6,16,0.00,0,,62
2013-8-11,84,74,63,68,63,57,84,71,58,30.12,30.07,30.00,10,10,10,12,4,15,0.00,0,,159
2013-8-12,84,76,67,72,68,64,93,74,55,30.05,30.00,29.94,10,8,1,22,6,30,0.64,4,Rain-Thunderstorm,351
2013-8-13,80,73,66,68,61,56,90,69,48,30.10,30.06,30.00,10,10,9,14,5,20,0.00,0,,50
2013-8-14,77,69,61,61,58,54,90,70,50,30.18,30.13,30.09,10,10,10,10,6,16,0.00,1,,104
2013-8-15,75,68,61,60,57,54,84,71,57,30.11,30.08,30.01,10,10,9,15,7,17,0.01,4,Rain,144
2013-8-16,78,69,60,56,55,54,84,66,47,30.15,30.12,30.07,10,10,10,12,5,16,0.00,2,,103
2013-8-17,78,68,57,57,54,51,93,67,40,30.18,30.14,30.09,10,10,10,13,5,20,0.00,1,,87
2013-8-18,81,70,59,62,58,55,84,65,45,30.16,30.11,30.06,10,10,9,14,4,16,0.00,1,,139
2013-8-19,84,73,62,66,62,60,93,70,47,30.10,30.05,29.99,10,9,4,14,6,17,0.00,0,,169
2013-8-20,87,76,65,67,64,62,93,70,46,30.05,30.02,29.98,10,10,8,15,7,18,0.00,0,,179
2013-8-21,88,77,65,69,66,62,87,69,50,30.07,30.02,29.99,10,10,8,13,6,16,0.00,0,,181
2013-8-22,89,79,68,70,67,65,90,70,50,30.09,30.04,30.00,10,9,6,9,4,12,0.00,0,,184
2013-8-23,90,80,70,70,67,64,97,71,44,30.07,30.03,29.99,10,10,6,14,5,25,0.00,0,,155
2013-8-24,90,80,70,71,69,67,97,74,50,30.12,30.08,30.04,10,9,6,15,9,20,0.00,0,,161
2013-8-25,91,80,69,71,69,67,90,70,50,30.19,30.14,30.09,10,8,4,14,7,17,0.00,0,,172
2013-8-26,93,82,71,70,69,67,90,67,44,30.15,30.09,30.04,10,10,7,15,8,22,0.00,0,,200
2013-8-27,92,81,70,69,66,61,87,63,38,30.06,30.01,29.97,10,10,8,18,8,24,0.00,0,,207
2013-8-28,91,80,68,70,67,64,90,69,47,30.04,30.00,29.98,10,10,8,13,5,18,0.00,0,,215
2013-8-29,94,83,72,71,70,67,87,66,44,30.02,29.98,29.93,10,10,10,15,6,20,0.00,0,,185
2013-8-30,98,86,73,71,68,62,87,59,31,29.95,29.88,29.81,10,10,10,14,6,21,0.00,0,,209
2013-8-31,93,84,74,73,69,66,87,66,44,29.84,29.80,29.77,10,10,10,17,4,22,0.01,1,,245